Time,TemperatureF,DewpointF,PressureIn,WindDirection,WindDirectionDegrees,WindSpeedMPH,WindSpeedGustMPH,Humidity,HourlyPrecipIn,Conditions,Clouds,dailyrainin,SoftwareType,DateUTC
2013-09-03 00:05:00,83.4,83.4,29.91,East,88,1.0,3.0,100,0.00,,,0.00,Wunderground v.1.15,2013-09-03 04:05:00,
2013-09-03 00:10:00,83.4,83.4,29.91,ENE,66,1.0,1.0,100,0.00,,,0.00,Wunderground v.1.15,2013-09-03 04:10:00,
2013-09-03 00:15:00,83.4,83.4,29.90,East,85,1.0,1.0,100,0.00,,,0.00,Wunderground v.1.15,2013-09-03 04:15:00,
2013-09-03 00:20:00,83.2,83.2,29.90,East,89,1.0,1.0,100,0.00,,,0.00,Wunderground v.1.15,2013-09-03 04:20:00,
2013-09-03 00:30:00,83.4,83.4,29.89,East,99,1.0,1.0,100,0.00,,,0.00,Wunderground v.1.15,2013-09-03 04:30:00,
2013-09-03 00:40:00,83.4,83.4,29.89,East,100,1.0,1.0,100,0.00,,,0.00,Wunderground v.1.15,2013-09-03 04:40:00,
2013-09-03 00:45:00,83.4,83.4,29.89,ESE,119,1.0,1.0,100,0.00,,,0.00,Wunderground v.1.15,2013-09-03 04:45:00,
2013-09-03 00:55:00,83.8,83.8,29.89,ESE,109,1.0,1.0,100,0.00,,,0.00,Wunderground v.1.15,2013-09-03 04:55:00,
2013-09-03 01:00:00,83.8,83.8,29.89,ESE,107,1.0,3.0,100,0.00,,,0.00,Wunderground v.1.15,2013-09-03 05:00:00,
2013-09-03 01:10:00,83.8,83.8,29.89,ESE,119,2.0,2.0,100,0.00,,,0.00,Wunderground v.1.15,2013-09-03 05:10:00,
2013-09-03 01:15:00,83.8,83.8,29.89,ESE,106,2.0,2.0,100,0.00,,,0.00,Wunderground v.1.15,2013-09-03 05:15:00,
2013-09-03 01:25:00,83.4,83.4,29.89,ESE,109,2.0,6.0,100,0.00,,,0.00,Wunderground v.1.15,2013-09-03 05:25:00,
2013-09-03 01:30:00,83.4,83.4,29.89,ESE,116,3.0,6.0,100,0.00,,,0.00,Wunderground v.1.15,2013-09-03 05:30:00,
2013-09-03 01:45:00,83.4,83.4,29.88,ESE,102,1.0,5.0,100,0.00,,,0.00,Wunderground v.1.15,2013-09-03 05:45:00,
2013-09-03 01:55:00,83.2,83.2,29.88,ESE,119,1.0,5.0,100,0.00,,,0.00,Wunderground v.1.15,2013-09-03 05:55:00,
2013-09-03 02:00:00,83.2,83.2,29.88,ESE,117,1.0,1.0,100,0.00,,,0.00,Wunderground v.1.15,2013-09-03 06:00:00,
2013-09-03 02:10:00,83.4,83.4,29.88,ESE,123,1.0,1.0,100,0.00,,,0.00,Wunderground v.1.15,2013-09-03 06:10:00,
2013-09-03 02:20:00,83.4,83.4,29.86,East,82,2.0,2.0,100,0.00,,,0.00,Wunderground v.1.15,2013-09-03 06:20:00,
2013-09-03 02:30:00,83.4,83.4,29.86,ENE,75,1.0,2.0,100,0.00,,,0.00,Wunderground v.1.15,2013-09-03 06:30:00,
2013-09-03 02:40:00,83.2,83.2,29.86,ENE,75,1.0,1.0,100,0.00,,,0.00,Wunderground v.1.15,2013-09-03 06:40:00,
2013-09-03 02:50:00,83.2,83.2,29.86,ENE,75,0.0,0.0,100,0.00,,,0.00,Wunderground v.1.15,2013-09-03 06:50:00,
2013-09-03 02:55:00,83.4,83.4,29.86,ENE,75,0.0,0.0,100,0.00,,,0.00,Wunderground v.1.15,2013-09-03 06:55:00,
2013-09-03 03:05:00,83.2,83.2,29.86,ENE,76,1.0,6.0,100,0.00,,,0.00,Wunderground v.1.15,2013-09-03 07:05:00,
2013-09-03 03:10:00,83.4,83.4,29.86,ENE,78,1.0,3.0,100,0.00,,,0.00,Wunderground v.1.15,2013-09-03 07:10:00,
2013-09-03 03:20:00,83.4,83.4,29.85,East,86,1.0,1.0,100,0.00,,,0.00,Wunderground v.1.15,2013-09-03 07:20:00,
2013-09-03 03:30:00,83.2,83.2,29.85,East,80,1.0,1.0,100,0.00,,,0.00,Wunderground v.1.15,2013-09-03 07:30:00,
2013-09-03 03:35:00,83.2,83.2,29.85,East,85,1.0,5.0,100,0.00,,,0.00,Wunderground v.1.15,2013-09-03 07:35:00,
2013-09-03 03:45:00,83.2,83.2,29.84,ENE,76,2.0,3.0,100,0.00,,,0.00,Wunderground v.1.15,2013-09-03 07:45:00,
2013-09-03 03:55:00,83.0,83.0,29.84,East,92,0.0,0.0,100,0.00,,,0.00,Wunderground v.1.15,2013-09-03 07:55:00,
2013-09-03 04:00:00,83.0,83.0,29.84,ENE,62,1.0,1.0,100,0.00,,,0.00,Wunderground v.1.15,2013-09-03 08:00:00,
2013-09-03 04:10:00,83.0,83.0,29.84,ENE,75,1.0,1.0,100,0.00,,,0.00,Wunderground v.1.15,2013-09-03 08:10:00,
2013-09-03 04:15:00,83.0,83.0,29.83,East,97,0.0,1.0,100,0.00,,,0.00,Wunderground v.1.15,2013-09-03 08:15:00,
2013-09-03 04:25:00,83.0,83.0,29.83,ENE,58,1.0,1.0,100,0.00,,,0.00,Wunderground v.1.15,2013-09-03 08:25:00,
2013-09-03 04:35:00,83.2,83.2,29.84,East,89,1.0,2.0,100,0.00,,,0.00,Wunderground v.1.15,2013-09-03 08:35:00,
2013-09-03 04:45:00,83.0,83.0,29.83,ENE,76,1.0,1.0,100,0.00,,,0.00,Wunderground v.1.15,2013-09-03 08:45:00,
2013-09-03 04:55:00,83.0,83.0,29.83,East,82,1.0,6.0,100,0.00,,,0.00,Wunderground v.1.15,2013-09-03 08:55:00,
2013-09-03 05:00:00,83.0,83.0,29.83,East,86,1.0,1.0,100,0.00,,,0.00,Wunderground v.1.15,2013-09-03 09:00:00,
2013-09-03 05:10:00,83.2,83.2,29.83,East,86,0.0,0.0,100,0.00,,,0.00,Wunderground v.1.15,2013-09-03 09:10:00,
2013-09-03 05:15:00,83.0,83.0,29.83,East,85,0.0,0.0,100,0.00,,,0.00,Wunderground v.1.15,2013-09-03 09:15:00,
2013-09-03 05:25:00,83.2,83.2,29.83,ENE,71,1.0,1.0,100,0.00,,,0.00,Wunderground v.1.15,2013-09-03 09:25:00,
2013-09-03 05:35:00,83.2,83.2,29.83,East,79,1.0,2.0,100,0.00,,,0.00,Wunderground v.1.15,2013-09-03 09:35:00,
2013-09-03 05:40:00,83.2,83.2,29.83,ENE,66,1.0,1.0,100,0.00,,,0.00,Wunderground v.1.15,2013-09-03 09:40:00,
2013-09-03 05:50:00,83.2,83.2,29.84,East,89,1.0,1.0,100,0.00,,,0.00,Wunderground v.1.15,2013-09-03 09:50:00,
2013-09-03 06:00:00,83.0,83.0,29.84,East,100,0.0,7.0,100,0.00,,,0.00,Wunderground v.1.15,2013-09-03 10:00:00,
2013-09-03 06:10:00,83.2,83.2,29.84,ESE,103,1.0,1.0,100,0.00,,,0.00,Wunderground v.1.15,2013-09-03 10:10:00,
2013-09-03 06:15:00,83.2,83.2,29.84,ESE,104,1.0,1.0,100,0.00,,,0.00,Wunderground v.1.15,2013-09-03 10:15:00,
2013-09-03 06:25:00,83.2,83.2,29.84,ESE,104,2.0,2.0,100,0.00,,,0.00,Wunderground v.1.15,2013-09-03 10:25:00,
2013-09-03 06:30:00,83.2,83.2,29.84,East,99,1.0,1.0,100,0.00,,,0.00,Wunderground v.1.15,2013-09-03 10:30:00,
2013-09-03 06:40:00,83.2,83.2,29.84,East,93,0.0,0.0,100,0.00,,,0.00,Wunderground v.1.15,2013-09-03 10:40:00,
2013-09-03 06:45:00,83.2,83.2,29.86,East,93,0.0,0.0,100,0.00,,,0.00,Wunderground v.1.15,2013-09-03 10:45:00,
2013-09-03 06:55:00,83.2,83.2,29.86,East,96,0.0,0.0,100,0.00,,,0.00,Wunderground v.1.15,2013-09-03 10:55:00,
2013-09-03 07:00:00,83.2,83.2,29.86,East,96,0.0,0.0,100,0.00,,,0.00,Wunderground v.1.15,2013-09-03 11:00:00,
2013-09-03 07:10:00,83.2,83.2,29.86,ESE,103,1.0,1.0,100,0.00,,,0.00,Wunderground v.1.15,2013-09-03 11:10:00,
2013-09-03 07:20:00,83.2,83.2,29.86,ESE,107,2.0,4.0,100,0.00,,,0.00,Wunderground v.1.15,2013-09-03 11:20:00,
2013-09-03 07:30:00,83.4,83.4,29.86,SE,138,1.0,1.0,100,0.00,,,0.00,Wunderground v.1.15,2013-09-03 11:30:00,
2013-09-03 07:35:00,83.4,83.4,29.86,SE,130,1.0,1.0,100,0.00,,,0.00,Wunderground v.1.15,2013-09-03 11:35:00,
2013-09-03 07:45:00,83.8,83.8,29.86,SE,128,0.0,1.0,100,0.00,,,0.00,Wunderground v.1.15,2013-09-03 11:45:00,
2013-09-03 07:55:00,83.8,83.8,29.86,ESE,113,1.0,1.0,100,0.00,,,0.00,Wunderground v.1.15,2013-09-03 11:55:00,
2013-09-03 08:00:00,83.8,83.8,29.87,ESE,113,0.0,0.0,100,0.00,,,0.00,Wunderground v.1.15,2013-09-03 12:00:00,
2013-09-03 08:10:00,83.8,83.8,29.87,ESE,114,0.0,0.0,100,0.00,,,0.00,Wunderground v.1.15,2013-09-03 12:10:00,
2013-09-03 08:20:00,84.5,84.5,29.88,ESE,114,0.0,0.0,100,0.00,,,0.00,Wunderground v.1.15,2013-09-03 12:20:00,
2013-09-03 08:25:00,84.9,84.9,29.88,ESE,114,0.0,0.0,100,0.00,,,0.00,Wunderground v.1.15,2013-09-03 12:25:00,
2013-09-03 08:35:00,85.3,85.3,29.89,ESE,113,0.0,0.0,100,0.00,,,0.00,Wunderground v.1.15,2013-09-03 12:35:00,
2013-09-03 08:40:00,85.5,85.5,29.89,ESE,119,0.0,0.0,100,0.00,,,0.00,Wunderground v.1.15,2013-09-03 12:40:00,
2013-09-03 08:50:00,85.5,85.5,29.89,ESE,116,1.0,1.0,100,0.00,,,0.00,Wunderground v.1.15,2013-09-03 12:50:00,
2013-09-03 08:55:00,85.5,85.5,29.89,ESE,116,1.0,1.0,100,0.00,,,0.00,Wunderground v.1.15,2013-09-03 12:55:00,
2013-09-03 09:05:00,85.3,85.3,29.89,ESE,117,1.0,1.0,100,0.00,,,0.00,Wunderground v.1.15,2013-09-03 13:05:00,
2013-09-03 09:15:00,85.9,85.9,29.90,ESE,117,0.0,1.0,100,0.00,,,0.00,Wunderground v.1.15,2013-09-03 13:15:00,
2013-09-03 09:25:00,86.5,86.5,29.90,ESE,114,0.0,0.0,100,0.00,,,0.00,Wunderground v.1.15,2013-09-03 13:25:00,
2013-09-03 09:30:00,86.5,86.5,29.90,ESE,113,0.0,0.0,100,0.00,,,0.00,Wunderground v.1.15,2013-09-03 13:30:00,
2013-09-03 09:40:00,86.7,86.7,29.90,ESE,113,0.0,0.0,100,0.00,,,0.00,Wunderground v.1.15,2013-09-03 13:40:00,
2013-09-03 09:50:00,87.0,87.0,29.91,ESE,113,0.0,0.0,100,0.00,,,0.00,Wunderground v.1.15,2013-09-03 13:50:00,
2013-09-03 10:00:00,87.2,87.2,29.91,ESE,113,0.0,0.0,100,0.00,,,0.00,Wunderground v.1.15,2013-09-03 14:00:00,
2013-09-03 10:05:00,87.2,87.2,29.91,ESE,113,0.0,0.0,100,0.00,,,0.00,Wunderground v.1.15,2013-09-03 14:05:00,
2013-09-03 10:15:00,87.0,87.0,29.91,ESE,102,1.0,1.0,100,0.00,,,0.00,Wunderground v.1.15,2013-09-03 14:15:00,
2013-09-03 10:25:00,87.6,87.6,29.91,ESE,102,0.0,1.0,100,0.00,,,0.00,Wunderground v.1.15,2013-09-03 14:25:00,
2013-09-03 10:35:00,87.8,87.8,29.92,ESE,102,0.0,0.0,100,0.00,,,0.00,Wunderground v.1.15,2013-09-03 14:35:00,
2013-09-03 10:40:00,87.8,87.8,29.92,ESE,103,0.0,0.0,100,0.00,,,0.00,Wunderground v.1.15,2013-09-03 14:40:00,
2013-09-03 10:50:00,86.7,86.7,29.92,ESE,109,0.0,1.0,100,0.00,,,0.00,Wunderground v.1.15,2013-09-03 14:50:00,
2013-09-03 11:00:00,87.2,87.2,29.92,ESE,103,1.0,1.0,100,0.00,,,0.00,Wunderground v.1.15,2013-09-03 15:00:00,
2013-09-03 11:05:00,87.6,87.6,29.92,ESE,103,1.0,1.0,100,0.00,,,0.00,Wunderground v.1.15,2013-09-03 15:05:00,
2013-09-03 11:15:00,87.2,87.2,29.92,ESE,103,0.0,0.0,100,0.00,,,0.00,Wunderground v.1.15,2013-09-03 15:15:00,
2013-09-03 11:25:00,87.2,87.2,29.92,ESE,103,0.0,0.0,100,0.00,,,0.00,Wunderground v.1.15,2013-09-03 15:25:00,
2013-09-03 11:30:00,86.7,86.7,29.93,East,100,0.0,0.0,100,0.00,,,0.00,Wunderground v.1.15,2013-09-03 15:30:00,
2013-09-03 11:40:00,87.0,87.0,29.93,East,99,0.0,0.0,100,0.00,,,0.00,Wunderground v.1.15,2013-09-03 15:40:00,
2013-09-03 11:45:00,87.0,87.0,29.92,East,97,1.0,1.0,100,0.00,,,0.00,Wunderground v.1.15,2013-09-03 15:45:00,
2013-09-03 11:55:00,86.5,86.5,29.92,East,96,0.0,1.0,100,0.00,,,0.00,Wunderground v.1.15,2013-09-03 15:55:00,
2013-09-03 12:00:00,85.9,85.9,29.92,East,79,1.0,1.0,100,0.00,,,0.00,Wunderground v.1.15,2013-09-03 16:00:00,
2013-09-03 12:10:00,85.1,85.1,29.92,East,93,1.0,2.0,100,0.00,,,0.01,Wunderground v.1.15,2013-09-03 16:10:00,
2013-09-03 12:20:00,82.4,82.4,29.92,East,82,2.0,2.0,100,0.00,,,0.01,Wunderground v.1.15,2013-09-03 16:20:00,
2013-09-03 12:30:00,80.7,80.7,29.92,East,79,3.0,3.0,100,0.38,,,0.05,Wunderground v.1.15,2013-09-03 16:30:00,
2013-09-03 12:35:00,79.9,79.9,29.92,SE,145,3.0,3.0,100,0.15,,,0.06,Wunderground v.1.15,2013-09-03 16:35:00,
2013-09-03 12:45:00,79.0,79.0,29.92,SSE,151,2.0,4.0,100,0.04,,,0.06,Wunderground v.1.15,2013-09-03 16:45:00,
2013-09-03 12:50:00,78.8,78.8,29.92,SSE,151,1.0,1.0,100,0.00,,,0.06,Wunderground v.1.15,2013-09-03 16:50:00,
2013-09-03 13:00:00,78.5,78.5,29.91,SSE,151,0.0,0.0,100,0.00,,,0.06,Wunderground v.1.15,2013-09-03 17:00:00,
2013-09-03 13:05:00,79.2,79.2,29.91,SSE,151,0.0,0.0,100,0.00,,,0.06,Wunderground v.1.15,2013-09-03 17:05:00,
2013-09-03 13:15:00,80.9,80.9,29.91,SSE,151,0.0,0.0,100,0.00,,,0.06,Wunderground v.1.15,2013-09-03 17:15:00,
2013-09-03 13:20:00,82.4,82.4,29.91,SSE,151,0.0,0.0,100,0.00,,,0.06,Wunderground v.1.15,2013-09-03 17:20:00,
2013-09-03 13:30:00,84.3,84.3,29.91,SSE,151,0.0,0.0,100,0.00,,,0.06,Wunderground v.1.15,2013-09-03 17:30:00,
2013-09-03 13:35:00,84.3,84.3,29.91,SSE,151,0.0,0.0,100,0.00,,,0.06,Wunderground v.1.15,2013-09-03 17:35:00,
2013-09-03 13:45:00,84.1,84.1,29.91,SSE,151,0.0,0.0,100,0.00,,,0.06,Wunderground v.1.15,2013-09-03 17:45:00,
2013-09-03 13:55:00,84.1,84.1,29.91,SSE,151,0.0,0.0,100,0.00,,,0.06,Wunderground v.1.15,2013-09-03 17:55:00,
2013-09-03 14:00:00,84.7,84.7,29.90,SSE,151,0.0,0.0,100,0.00,,,0.06,Wunderground v.1.15,2013-09-03 18:00:00,
2013-09-03 14:10:00,84.9,84.9,29.90,SSE,151,0.0,0.0,100,0.00,,,0.06,Wunderground v.1.15,2013-09-03 18:10:00,
2013-09-03 14:15:00,84.7,84.7,29.90,SSE,151,0.0,0.0,100,0.00,,,0.06,Wunderground v.1.15,2013-09-03 18:15:00,
2013-09-03 14:25:00,84.0,84.0,29.90,SSE,152,0.0,0.0,100,0.00,,,0.06,Wunderground v.1.15,2013-09-03 18:25:00,
2013-09-03 14:30:00,84.0,84.0,29.89,SSE,160,1.0,1.0,100,0.00,,,0.06,Wunderground v.1.15,2013-09-03 18:30:00,
2013-09-03 14:40:00,83.2,83.2,29.89,SSE,160,0.0,0.0,100,0.00,,,0.06,Wunderground v.1.15,2013-09-03 18:40:00,
2013-09-03 14:45:00,83.2,83.2,29.89,SSE,160,0.0,0.0,100,0.00,,,0.06,Wunderground v.1.15,2013-09-03 18:45:00,
2013-09-03 14:55:00,83.2,83.2,29.89,SSE,160,0.0,0.0,100,0.00,,,0.06,Wunderground v.1.15,2013-09-03 18:55:00,
2013-09-03 15:00:00,83.2,83.2,29.88,SSE,160,0.0,0.0,100,0.00,,,0.06,Wunderground v.1.15,2013-09-03 19:00:00,
2013-09-03 15:10:00,83.2,83.2,29.88,SSE,160,0.0,0.0,100,0.00,,,0.06,Wunderground v.1.15,2013-09-03 19:10:00,
2013-09-03 15:20:00,83.4,83.4,29.88,SSE,160,0.0,0.0,100,0.00,,,0.06,Wunderground v.1.15,2013-09-03 19:20:00,
2013-09-03 15:25:00,83.6,83.6,29.88,SSE,160,0.0,0.0,100,0.00,,,0.06,Wunderground v.1.15,2013-09-03 19:25:00,
2013-09-03 15:35:00,83.8,83.8,29.88,SSE,160,0.0,0.0,100,0.00,,,0.06,Wunderground v.1.15,2013-09-03 19:35:00,
2013-09-03 15:45:00,84.0,84.0,29.87,SSE,160,0.0,0.0,100,0.00,,,0.06,Wunderground v.1.15,2013-09-03 19:45:00,
2013-09-03 15:50:00,84.1,84.1,29.87,SSE,160,0.0,0.0,100,0.00,,,0.06,Wunderground v.1.15,2013-09-03 19:50:00,
2013-09-03 16:00:00,84.1,84.1,29.86,SSE,165,0.0,0.0,100,0.00,,,0.06,Wunderground v.1.15,2013-09-03 20:00:00,
2013-09-03 16:10:00,84.3,84.3,29.86,SSE,165,0.0,0.0,100,0.00,,,0.06,Wunderground v.1.15,2013-09-03 20:10:00,
2013-09-03 16:20:00,84.5,84.5,29.86,West,267,0.0,0.0,100,0.00,,,0.06,Wunderground v.1.15,2013-09-03 20:20:00,
2013-09-03 16:25:00,84.3,84.3,29.86,West,267,0.0,0.0,100,0.00,,,0.06,Wunderground v.1.15,2013-09-03 20:25:00,
2013-09-03 16:35:00,84.1,84.1,29.86,West,267,0.0,0.0,100,0.00,,,0.06,Wunderground v.1.15,2013-09-03 20:35:00,
2013-09-03 16:40:00,84.1,84.1,29.86,West,268,1.0,5.0,100,0.00,,,0.06,Wunderground v.1.15,2013-09-03 20:40:00,
2013-09-03 16:50:00,84.0,84.0,29.86,West,268,1.0,5.0,100,0.00,,,0.06,Wunderground v.1.15,2013-09-03 20:50:00,
2013-09-03 16:55:00,83.8,83.8,29.86,West,272,1.0,5.0,100,0.00,,,0.06,Wunderground v.1.15,2013-09-03 20:55:00,
2013-09-03 17:05:00,84.0,84.0,29.86,WNW,302,0.0,0.0,100,0.00,,,0.06,Wunderground v.1.15,2013-09-03 21:05:00,
2013-09-03 17:15:00,84.0,84.0,29.85,WNW,302,0.0,0.0,100,0.00,,,0.06,Wunderground v.1.15,2013-09-03 21:15:00,
2013-09-03 17:25:00,83.8,83.8,29.85,WNW,302,0.0,0.0,100,0.00,,,0.06,Wunderground v.1.15,2013-09-03 21:25:00,
2013-09-03 17:35:00,84.1,84.1,29.85,WNW,302,0.0,0.0,100,0.00,,,0.06,Wunderground v.1.15,2013-09-03 21:35:00,
2013-09-03 17:40:00,83.8,83.8,29.85,NW,304,1.0,1.0,100,0.00,,,0.06,Wunderground v.1.15,2013-09-03 21:40:00,
2013-09-03 17:50:00,83.6,83.6,29.86,NNW,340,3.0,6.0,100,0.00,,,0.06,Wunderground v.1.15,2013-09-03 21:50:00,
2013-09-03 17:55:00,83.2,83.2,29.86,NNW,333,4.0,6.0,100,0.00,,,0.06,Wunderground v.1.15,2013-09-03 21:55:00,
2013-09-03 18:05:00,83.2,83.2,29.86,NNE,16,5.0,6.0,100,0.00,,,0.06,Wunderground v.1.15,2013-09-03 22:05:00,
2013-09-03 18:15:00,81.4,81.4,29.86,NNE,31,10.0,12.0,100,0.00,,,0.06,Wunderground v.1.15,2013-09-03 22:15:00,
2013-09-03 18:20:00,81.6,81.6,29.86,North,11,10.0,10.0,100,0.00,,,0.06,Wunderground v.1.15,2013-09-03 22:20:00,
2013-09-03 18:30:00,80.7,80.7,29.87,North,4,8.0,8.0,100,0.00,,,0.06,Wunderground v.1.15,2013-09-03 22:30:00,
2013-09-03 18:40:00,79.4,79.4,29.87,North,7,9.0,9.0,100,0.00,,,0.06,Wunderground v.1.15,2013-09-03 22:40:00,
2013-09-03 18:50:00,79.4,79.4,29.87,NNE,21,3.0,3.0,100,0.00,,,0.06,Wunderground v.1.15,2013-09-03 22:50:00,
2013-09-03 19:00:00,79.9,79.9,29.87,NNE,21,0.0,0.0,100,0.00,,,0.06,Wunderground v.1.15,2013-09-03 23:00:00,
2013-09-03 19:05:00,80.3,80.3,29.87,NNE,21,1.0,1.0,100,0.00,,,0.06,Wunderground v.1.15,2013-09-03 23:05:00,
2013-09-03 19:15:00,80.5,80.5,29.88,NNE,21,0.0,1.0,100,0.00,,,0.06,Wunderground v.1.15,2013-09-03 23:15:00,
2013-09-03 19:20:00,80.7,80.7,29.88,NNE,21,0.0,0.0,100,0.00,,,0.06,Wunderground v.1.15,2013-09-03 23:20:00,
2013-09-03 19:30:00,80.7,80.7,29.88,NNE,21,0.0,0.0,100,0.00,,,0.06,Wunderground v.1.15,2013-09-03 23:30:00,
2013-09-03 19:35:00,80.7,80.7,29.88,NNE,21,0.0,0.0,100,0.00,,,0.06,Wunderground v.1.15,2013-09-03 23:35:00,
2013-09-03 19:45:00,81.1,81.1,29.88,NNE,21,1.0,1.0,100,0.00,,,0.06,Wunderground v.1.15,2013-09-03 23:45:00,
2013-09-03 19:50:00,81.1,81.1,29.88,NNE,21,0.0,0.0,100,0.00,,,0.06,Wunderground v.1.15,2013-09-03 23:50:00,
2013-09-03 20:00:00,81.1,81.1,29.89,NNE,21,0.0,3.0,100,0.00,,,0.06,Wunderground v.1.15,2013-09-04 00:00:00,
2013-09-03 20:05:00,81.1,81.1,29.89,NNE,21,0.0,3.0,100,0.00,,,0.06,Wunderground v.1.15,2013-09-04 00:05:00,
2013-09-03 20:15:00,81.1,81.1,29.89,NNE,21,0.0,5.0,100,0.00,,,0.06,Wunderground v.1.15,2013-09-04 00:15:00,
2013-09-03 20:25:00,81.1,81.1,29.89,NNE,21,0.0,0.0,100,0.00,,,0.06,Wunderground v.1.15,2013-09-04 00:25:00,
2013-09-03 20:35:00,81.2,81.2,29.89,NNE,21,0.0,0.0,100,0.00,,,0.06,Wunderground v.1.15,2013-09-04 00:35:00,
2013-09-03 20:40:00,81.2,81.2,29.89,NNE,21,0.0,0.0,100,0.00,,,0.06,Wunderground v.1.15,2013-09-04 00:40:00,
2013-09-03 20:50:00,81.4,81.4,29.90,NNE,21,0.0,0.0,100,0.00,,,0.06,Wunderground v.1.15,2013-09-04 00:50:00,
2013-09-03 21:00:00,81.6,81.6,29.89,NNE,21,0.0,0.0,100,0.00,,,0.06,Wunderground v.1.15,2013-09-04 01:00:00,
2013-09-03 21:05:00,81.6,81.6,29.89,NNE,21,0.0,0.0,100,0.00,,,0.06,Wunderground v.1.15,2013-09-04 01:05:00,
2013-09-03 21:15:00,81.6,81.6,29.90,NNE,21,0.0,0.0,100,0.00,,,0.06,Wunderground v.1.15,2013-09-04 01:15:00,
2013-09-03 21:25:00,81.6,81.6,29.90,NNE,21,0.0,0.0,100,0.00,,,0.06,Wunderground v.1.15,2013-09-04 01:25:00,
2013-09-03 21:30:00,81.4,81.4,29.90,NNE,21,0.0,0.0,100,0.00,,,0.06,Wunderground v.1.15,2013-09-04 01:30:00,
2013-09-03 21:40:00,81.6,81.6,29.90,NNE,21,0.0,0.0,100,0.00,,,0.06,Wunderground v.1.15,2013-09-04 01:40:00,
2013-09-03 21:45:00,81.4,81.4,29.90,NNE,21,0.0,0.0,100,0.00,,,0.06,Wunderground v.1.15,2013-09-04 01:45:00,
2013-09-03 21:55:00,81.6,81.6,29.90,NNE,21,0.0,0.0,100,0.00,,,0.06,Wunderground v.1.15,2013-09-04 01:55:00,
2013-09-03 22:00:00,82.2,82.2,29.91,East,99,0.0,0.0,100,0.00,,,0.06,Wunderground v.1.15,2013-09-04 02:00:00,
2013-09-03 22:10:00,82.6,82.6,29.91,East,89,0.0,0.0,100,0.00,,,0.06,Wunderground v.1.15,2013-09-04 02:10:00,
2013-09-03 22:15:00,82.8,82.8,29.91,ESE,109,0.0,0.0,100,0.00,,,0.06,Wunderground v.1.15,2013-09-04 02:15:00,
2013-09-03 22:25:00,83.2,83.2,29.91,ESE,112,2.0,2.0,100,0.00,,,0.06,Wunderground v.1.15,2013-09-04 02:25:00,
2013-09-03 22:30:00,83.2,83.2,29.91,ESE,123,3.0,3.0,100,0.00,,,0.06,Wunderground v.1.15,2013-09-04 02:30:00,
2013-09-03 22:40:00,83.6,83.6,29.91,East,80,6.0,9.0,100,0.00,,,0.06,Wunderground v.1.15,2013-09-04 02:40:00,
2013-09-03 22:50:00,83.6,83.6,29.92,ESE,121,7.0,7.0,100,0.00,,,0.06,Wunderground v.1.15,2013-09-04 02:50:00,
2013-09-03 23:00:00,83.8,83.8,29.92,SSE,147,6.0,6.0,100,0.00,,,0.06,Wunderground v.1.15,2013-09-04 03:00:00,
2013-09-03 23:05:00,83.8,83.8,29.92,ESE,121,6.0,6.0,100,0.00,,,0.06,Wunderground v.1.15,2013-09-04 03:05:00,
2013-09-03 23:15:00,84.0,84.0,29.92,ESE,109,6.0,7.0,100,0.00,,,0.06,Wunderground v.1.15,2013-09-04 03:15:00,
2013-09-03 23:20:00,84.0,84.0,29.92,ESE,121,7.0,7.0,100,0.00,,,0.06,Wunderground v.1.15,2013-09-04 03:20:00,
2013-09-03 23:30:00,83.8,83.8,29.92,SE,124,7.0,7.0,100,0.00,,,0.06,Wunderground v.1.15,2013-09-04 03:30:00,
2013-09-03 23:40:00,83.0,83.0,29.92,ENE,71,4.0,5.0,100,0.00,,,0.06,Wunderground v.1.15,2013-09-04 03:40:00,
2013-09-03 23:50:00,83.0,83.0,29.91,ESE,103,3.0,3.0,100,0.00,,,0.06,Wunderground v.1.15,2013-09-04 03:50:00,
2013-09-03 23:55:00,83.0,83.0,29.91,East,92,3.0,3.0,100,0.00,,,0.06,Wunderground v.1.15,2013-09-04 03:55:00,